createdAt,value
2018-04-16T01:00:27.451Z,10.30
2018-04-16T01:03:00.569Z,10.31
2018-04-16T01:14:11.852Z,10.39
2018-04-16T01:16:45.043Z,10.40
2018-04-16T01:19:18.208Z,10.42
2018-04-16T01:21:51.413Z,10.42
2018-04-16T01:32:37.940Z,10.32
2018-04-16T01:35:11.084Z,10.28
2018-04-16T01:37:44.065Z,10.26
2018-04-16T01:51:23.768Z,10.09
2018-04-16T01:53:56.958Z,10.06
2018-04-16T01:56:30.932Z,10.04
2018-04-16T02:07:49.486Z,10.05
2018-04-16T02:10:22.475Z,10.07
2018-04-16T02:12:55.639Z,10.09
2018-04-16T02:15:30.495Z,10.10
2018-04-16T02:23:48.895Z,10.08
2018-04-16T02:26:22.097Z,10.06
2018-04-16T02:28:55.340Z,10.03
2018-04-16T02:31:28.467Z,10.00
2018-04-16T02:42:25.291Z,9.88
2018-04-16T02:44:58.512Z,9.84
2018-04-16T02:47:31.529Z,9.81
2018-04-16T02:58:48.907Z,9.68
2018-04-16T03:01:22.060Z,9.64
2018-04-16T03:03:55.238Z,9.61
2018-04-16T03:18:49.054Z,9.35
2018-04-16T03:21:21.983Z,9.32
2018-04-16T03:37:30.399Z,9.13
2018-04-16T03:40:03.551Z,9.09
2018-04-16T03:51:09.127Z,8.94
2018-04-16T03:53:37.486Z,8.92
2018-04-16T03:56:04.982Z,8.89
2018-04-16T04:10:44.403Z,8.69
2018-04-16T04:13:11.891Z,8.67
2018-04-16T04:15:39.397Z,8.65
2018-04-16T04:26:56.018Z,8.56
2018-04-16T04:29:35.346Z,8.54
2018-04-16T04:32:02.872Z,8.52
2018-04-16T04:46:17.658Z,8.44
2018-04-16T04:48:45.170Z,8.43
2018-04-16T04:51:12.668Z,8.42
2018-04-16T05:02:20.558Z,8.34
2018-04-16T05:04:48.078Z,8.34
2018-04-16T05:07:15.558Z,8.35
2018-04-16T05:18:20.997Z,8.40
2018-04-16T05:20:48.487Z,8.41
2018-04-16T05:23:15.987Z,8.45
2018-04-16T05:25:43.492Z,8.46
2018-04-16T05:36:49.413Z,8.57
2018-04-16T05:39:16.890Z,8.59
2018-04-16T05:41:44.389Z,8.61
2018-04-16T05:53:09.921Z,8.64
2018-04-16T05:55:37.434Z,8.62
2018-04-16T05:58:04.962Z,8.61
2018-04-16T06:00:32.488Z,8.61
2018-04-16T06:11:38.638Z,8.62
2018-04-16T06:14:06.106Z,8.62
2018-04-16T06:16:33.637Z,8.62
2018-04-16T06:27:42.377Z,8.76
2018-04-16T06:30:09.892Z,8.80
2018-04-16T06:32:37.373Z,8.81
2018-04-16T06:35:04.910Z,8.85
2018-04-16T06:46:43.314Z,9.04
2018-04-16T06:49:10.809Z,9.12
2018-04-16T06:51:38.299Z,9.20
2018-04-16T07:02:23.889Z,9.50
2018-04-16T07:04:51.399Z,9.57
2018-04-16T07:07:18.898Z,9.63
2018-04-16T07:09:46.464Z,9.68
2018-04-16T09:23:05.896Z,12.51
2018-04-16T09:25:33.437Z,12.55
2018-04-16T09:28:01.032Z,12.64
2018-04-16T09:38:58.212Z,13.03
2018-04-16T09:41:25.747Z,13.07
2018-04-16T09:43:53.275Z,13.09
2018-04-16T09:46:22.512Z,13.11
2018-04-16T09:56:47.645Z,13.28
2018-04-16T09:59:15.214Z,13.40
2018-04-16T10:01:42.826Z,13.44
2018-04-16T10:12:46.847Z,13.38
2018-04-16T10:15:14.484Z,13.39
2018-04-16T10:17:42.035Z,13.40
2018-04-16T10:20:09.669Z,13.37
2018-04-16T10:31:16.266Z,13.38
2018-04-16T10:33:43.793Z,13.41
2018-04-16T10:36:11.361Z,13.43
2018-04-16T10:47:46.884Z,13.40
2018-04-16T10:50:14.435Z,13.34
2018-04-16T10:52:42.045Z,13.35
2018-04-16T10:55:09.633Z,13.42
2018-04-16T11:06:37.675Z,13.84
2018-04-16T11:09:06.125Z,13.97
2018-04-16T11:11:33.724Z,14.12
2018-04-16T11:23:10.613Z,14.29
2018-04-16T11:25:38.188Z,14.34
2018-04-16T11:28:14.449Z,14.39
2018-04-16T11:39:51.501Z,15.00
2018-04-16T11:42:19.119Z,15.08
2018-04-16T11:44:46.736Z,15.14
2018-04-16T11:56:32.818Z,14.97
2018-04-16T11:59:00.652Z,14.99
2018-04-16T12:01:28.440Z,15.06
2018-04-16T12:13:04.356Z,15.44
2018-04-16T12:15:32.015Z,15.48
2018-04-16T12:17:59.976Z,15.45
2018-04-16T12:20:27.701Z,15.41
2018-04-16T12:32:03.552Z,15.28
2018-04-16T12:34:31.221Z,15.34
2018-04-16T12:36:59.801Z,15.40
2018-04-16T12:39:33.346Z,15.46
2018-04-16T12:42:03.339Z,15.45
2018-04-16T12:47:07.065Z,15.33
2018-04-16T12:49:34.729Z,15.27
2018-04-16T12:52:02.274Z,15.23
2018-04-16T12:54:29.840Z,15.25
2018-04-16T12:56:59.021Z,15.26
2018-04-16T12:59:27.732Z,15.31
2018-04-16T13:01:55.796Z,15.35
2018-04-16T13:04:23.339Z,15.38
2018-04-16T13:06:50.861Z,15.34
2018-04-16T13:09:18.395Z,15.31
2018-04-16T13:11:46.007Z,15.32
2018-04-16T13:14:16.352Z,15.35
2018-04-16T13:16:47.196Z,15.37
2018-04-16T13:19:18.422Z,15.38
2018-04-16T13:21:46.011Z,15.42
2018-04-16T13:24:13.568Z,15.40
2018-04-16T13:26:41.101Z,15.40
2018-04-16T13:29:08.699Z,15.37
2018-04-16T13:31:39.324Z,15.40
2018-04-16T13:34:10.455Z,15.42
2018-04-16T13:36:43.067Z,15.52
2018-04-16T13:39:10.611Z,15.68
2018-04-16T13:41:38.190Z,15.75
2018-04-16T13:44:05.758Z,15.73
2018-04-16T13:46:47.171Z,15.74
2018-04-16T13:57:01.188Z,15.95
2018-04-16T13:59:28.823Z,15.95
2018-04-16T14:01:56.345Z,16.11
2018-04-16T14:14:51.864Z,16.09
2018-04-16T14:17:19.393Z,16.01
2018-04-16T14:19:46.987Z,15.98
2018-04-16T14:22:23.760Z,15.97
2018-04-16T14:30:32.938Z,15.94
2018-04-16T14:33:00.501Z,16.09
2018-04-16T14:35:28.084Z,16.11
2018-04-16T14:37:55.628Z,16.01
2018-04-16T14:40:26.894Z,15.99
2018-04-16T14:42:56.363Z,16.08
2018-04-16T14:45:28.838Z,16.00
2018-04-16T14:47:57.107Z,15.95
2018-04-16T14:50:24.628Z,15.92
2018-04-16T14:52:52.265Z,15.89
2018-04-16T14:55:19.883Z,15.97
2018-04-16T14:57:50.580Z,16.06
2018-04-16T15:00:22.979Z,16.02
2018-04-16T15:05:27.771Z,15.79
2018-04-16T15:07:55.351Z,15.67
2018-04-16T15:10:22.902Z,15.63
2018-04-16T15:12:50.604Z,15.70
2018-04-16T15:17:59.641Z,15.66
2018-04-16T15:23:10.833Z,15.56
2018-04-16T15:25:38.394Z,15.52
2018-04-16T15:28:05.957Z,15.41
2018-04-16T15:39:14.860Z,15.04
2018-04-16T15:41:42.418Z,15.03
2018-04-16T15:44:09.961Z,14.98
2018-04-16T15:46:37.559Z,14.92
2018-04-16T15:58:14.743Z,15.01
2018-04-16T16:00:42.355Z,15.07
2018-04-16T16:03:09.949Z,15.09
2018-04-16T16:14:43.439Z,14.95
2018-04-16T16:17:11.032Z,14.86
2018-04-16T16:19:38.573Z,14.79
2018-04-16T16:22:15.271Z,14.70
2018-04-16T16:24:47.068Z,14.66
2018-04-16T16:29:58.771Z,14.57
2018-04-16T16:32:26.352Z,14.53
2018-04-16T16:34:53.937Z,14.42
2018-04-16T16:37:21.474Z,14.31
2018-04-16T16:48:08.053Z,14.02
2018-04-16T16:50:35.624Z,14.00
2018-04-16T16:53:03.199Z,13.98
2018-04-16T16:55:30.912Z,13.95
2018-04-16T17:06:50.009Z,13.74
2018-04-16T17:09:17.583Z,13.70
2018-04-16T17:11:45.189Z,13.68
2018-04-16T17:23:11.423Z,13.61
2018-04-16T17:25:39.108Z,13.60
2018-04-16T17:28:06.631Z,13.57
2018-04-16T17:39:42.806Z,13.44
2018-04-16T17:42:10.407Z,13.44
2018-04-16T17:44:38.041Z,13.45
2018-04-16T17:47:05.604Z,13.42
2018-04-16T17:58:31.619Z,13.28
2018-04-16T18:00:59.188Z,13.27
2018-04-16T18:03:26.793Z,13.27
2018-04-16T18:15:02.914Z,13.17
2018-04-16T18:17:30.483Z,13.13
2018-04-16T18:19:58.072Z,13.11
2018-04-16T18:28:24.526Z,13.04
2018-04-16T18:30:53.738Z,13.01
2018-04-16T18:33:21.228Z,12.99
2018-04-16T18:35:48.713Z,12.98
2018-04-16T18:38:16.210Z,12.97
2018-04-16T18:40:44.130Z,12.96
2018-04-16T18:43:14.886Z,12.94
2018-04-16T18:45:47.750Z,12.93
2018-04-16T18:48:15.241Z,12.90
2018-04-16T18:50:42.715Z,12.87
2018-04-16T18:53:10.207Z,12.85
2018-04-16T18:55:37.718Z,12.83
2018-04-16T18:58:07.300Z,12.83
2018-04-16T19:00:35.685Z,12.83
2018-04-16T19:03:04.224Z,12.82
2018-04-16T19:05:31.710Z,12.80
2018-04-16T19:07:59.214Z,12.77
2018-04-16T19:10:27.667Z,12.77
2018-04-16T19:12:55.151Z,12.77
2018-04-16T19:15:27.336Z,12.74
2018-04-16T19:17:59.534Z,12.73
2018-04-16T19:20:35.048Z,12.73
2018-04-16T19:23:03.281Z,12.71
2018-04-16T19:25:30.802Z,12.71
2018-04-16T19:28:03.923Z,12.69
2018-04-16T19:30:31.406Z,12.68
2018-04-16T19:33:07.211Z,12.67
2018-04-16T19:35:40.087Z,12.67
2018-04-16T19:38:08.047Z,12.67
2018-04-16T19:40:35.550Z,12.66
2018-04-16T19:43:03.075Z,12.66
2018-04-16T19:45:30.562Z,12.64
2018-04-16T19:47:58.043Z,12.64
2018-04-16T19:50:26.406Z,12.64
2018-04-16T19:52:56.315Z,12.62
2018-04-16T19:55:28.233Z,12.63
2018-04-16T19:58:01.301Z,12.63
2018-04-16T20:00:28.806Z,12.63
2018-04-16T20:03:01.891Z,12.61
2018-04-16T20:05:29.385Z,12.61
2018-04-16T20:07:58.631Z,12.62
2018-04-16T20:10:27.395Z,12.62
2018-04-16T20:12:56.455Z,12.60
2018-04-16T20:15:23.945Z,12.59
2018-04-16T20:17:51.439Z,12.60
2018-04-16T20:20:18.947Z,12.60
2018-04-16T20:22:46.422Z,12.60
2018-04-16T20:25:16.494Z,12.61
2018-04-16T20:27:43.996Z,12.59
2018-04-16T20:30:11.911Z,12.59
2018-04-16T20:32:39.449Z,12.59
2018-04-16T20:35:06.946Z,12.59
2018-04-16T20:37:34.453Z,12.57
2018-04-16T20:40:01.931Z,12.57
2018-04-16T20:42:31.180Z,12.58
2018-04-16T20:44:59.681Z,12.59
2018-04-16T20:47:27.846Z,12.59
2018-04-16T20:49:55.326Z,12.59
2018-04-16T20:52:22.830Z,12.59
2018-04-16T20:54:50.339Z,12.59
2018-04-16T20:57:37.973Z,12.58
2018-04-16T21:00:06.626Z,12.58
2018-04-16T21:02:34.654Z,12.57
2018-04-16T21:05:03.062Z,12.58
2018-04-16T21:07:30.542Z,12.57
2018-04-16T21:09:58.059Z,12.57
2018-04-16T21:12:25.544Z,12.57
2018-04-16T21:14:53.028Z,12.56
2018-04-16T21:17:20.603Z,12.57
2018-04-16T21:19:52.130Z,12.57
2018-04-16T21:22:20.377Z,12.57
2018-04-16T21:24:47.866Z,12.57
2018-04-16T21:27:15.374Z,12.57
2018-04-16T21:29:42.863Z,12.58
2018-04-16T21:32:10.368Z,12.58
2018-04-16T21:34:40.423Z,12.58
2018-04-16T21:37:07.934Z,12.57
2018-04-16T21:39:39.438Z,12.58
2018-04-16T21:42:07.797Z,12.58
2018-04-16T21:44:35.301Z,12.58
2018-04-16T21:47:02.861Z,12.57
2018-04-16T21:49:30.353Z,12.57
2018-04-16T21:54:34.539Z,12.57
2018-04-16T21:57:04.230Z,12.57
2018-04-16T21:59:31.725Z,12.57
2018-04-16T22:01:59.205Z,12.57
2018-04-16T22:04:27.613Z,12.57
2018-04-16T22:06:55.114Z,12.57
2018-04-16T22:09:24.079Z,12.57
2018-04-16T22:11:54.630Z,12.57
2018-04-16T22:14:26.274Z,12.57
2018-04-16T22:16:53.762Z,12.57
2018-04-16T22:19:21.262Z,12.58
2018-04-16T22:21:48.735Z,12.58
2018-04-16T22:24:16.225Z,12.58
2018-04-16T22:26:44.190Z,12.59
2018-04-16T22:29:14.452Z,12.59
2018-04-16T22:31:44.436Z,12.59
2018-04-16T22:34:12.058Z,12.59
2018-04-16T22:36:40.567Z,12.60
2018-04-16T22:39:08.083Z,12.61
2018-04-16T22:41:35.571Z,12.62
2018-04-16T22:44:06.427Z,12.64
2018-04-16T22:46:36.378Z,12.65
2018-04-16T22:49:06.710Z,12.66
2018-04-16T22:51:34.202Z,12.66
2018-04-16T22:54:01.682Z,12.67
2018-04-16T22:56:29.169Z,12.66
2018-04-16T22:58:56.643Z,12.68
2018-04-16T23:01:24.150Z,12.68
2018-04-16T23:03:51.879Z,12.68
2018-04-16T23:06:20.619Z,12.69
2018-04-16T23:08:50.917Z,12.69
2018-04-16T23:11:18.422Z,12.71
2018-04-16T23:13:45.898Z,12.71
2018-04-16T23:16:13.401Z,12.71
2018-04-16T23:18:43.490Z,12.70
2018-04-16T23:21:12.542Z,12.70
2018-04-16T23:23:40.028Z,12.69
2018-04-16T23:26:07.524Z,12.68
2018-04-16T23:28:35.026Z,12.67
2018-04-16T23:31:02.526Z,12.67
2018-04-16T23:33:30.010Z,12.67
2018-04-16T23:35:59.263Z,12.66
2018-04-16T23:38:31.327Z,12.66
2018-04-16T23:41:04.222Z,12.66
2018-04-16T23:43:31.701Z,12.67
2018-04-16T23:45:59.213Z,12.67
2018-04-16T23:48:26.720Z,12.68
2018-04-16T23:50:54.212Z,12.68
2018-04-16T23:53:24.075Z,12.69
2018-04-16T23:55:52.611Z,12.70
2018-04-16T23:58:20.203Z,12.71
